createdAt,value
2023-04-01T00:01:27.263Z,12.07
2023-04-01T00:03:58.829Z,12.42
2023-04-01T00:06:30.870Z,12.12
2023-04-01T00:09:02.485Z,12.38
2023-04-01T00:11:34.135Z,11.92
2023-04-01T00:14:06.036Z,11.68
2023-04-01T00:16:37.883Z,12.35
2023-04-01T00:19:09.658Z,12.40
2023-04-01T00:21:41.262Z,11.96
2023-04-01T00:24:12.954Z,11.66
2023-04-01T00:26:45.557Z,12.18
2023-04-01T00:29:17.076Z,12.14
2023-04-01T00:31:50.222Z,12.01
2023-04-01T00:34:22.071Z,11.99
2023-04-01T00:36:55.056Z,11.75
2023-04-01T00:39:29.228Z,12.13
2023-04-01T00:42:02.315Z,11.96
2023-04-01T00:44:35.368Z,11.74
2023-04-01T00:47:07.354Z,11.32
2023-04-01T00:49:43.372Z,11.17
2023-04-01T00:52:23.571Z,11.06
2023-04-01T00:55:02.037Z,11.32
2023-04-01T00:57:37.590Z,10.96
2023-04-01T01:00:13.750Z,11.15
2023-04-01T01:02:50.203Z,10.67
2023-04-01T01:05:48.101Z,11.10
2023-04-01T01:09:00.963Z,11.05
2023-04-01T01:11:43.993Z,10.58
2023-04-01T01:14:49.685Z,10.78
2023-04-01T01:17:46.451Z,10.79
2023-04-01T01:20:49.149Z,10.44
2023-04-01T01:24:06.930Z,10.69
2023-04-01T01:27:21.716Z,10.74
2023-04-01T01:30:02.322Z,10.37
2023-04-01T01:32:48.585Z,10.46
2023-04-01T01:35:38.470Z,11.05
2023-04-01T01:38:16.183Z,11.08
2023-04-01T01:40:54.738Z,10.90
2023-04-01T01:43:32.721Z,11.25
2023-04-01T01:46:12.767Z,11.34
2023-04-01T01:48:48.997Z,11.01
2023-04-01T01:51:23.260Z,11.14
2023-04-01T01:53:55.681Z,11.22
2023-04-01T01:56:30.313Z,11.15
2023-04-01T01:59:08.639Z,11.28
2023-04-01T02:01:46.027Z,11.41
2023-04-01T02:04:19.367Z,11.21
2023-04-01T02:07:00.850Z,11.16
2023-04-01T02:09:32.650Z,11.50
2023-04-01T02:12:09.245Z,11.25
2023-04-01T02:15:06.212Z,11.46
2023-04-01T02:17:44.579Z,11.11
2023-04-01T02:20:22.003Z,10.95
2023-04-01T02:23:00.595Z,11.18
2023-04-01T02:25:37.037Z,11.70
2023-04-01T02:28:10.079Z,11.56
2023-04-01T02:30:44.622Z,11.39
2023-04-01T02:33:16.574Z,11.30
2023-04-01T02:35:48.560Z,11.18
2023-04-01T02:38:23.633Z,10.85
2023-04-01T02:41:01.783Z,11.39
2023-04-01T02:43:33.539Z,11.29
2023-04-01T02:46:05.112Z,11.51
2023-04-01T02:48:36.617Z,11.66
2023-04-01T02:51:13.877Z,11.60
2023-04-01T02:53:45.368Z,11.76
2023-04-01T02:56:16.890Z,11.73
2023-04-01T02:58:48.850Z,11.66
2023-04-01T03:01:21.575Z,11.14
2023-04-01T03:03:53.159Z,11.15
2023-04-01T03:06:24.753Z,11.37
2023-04-01T03:08:56.262Z,11.68
2023-04-01T03:11:27.949Z,11.76
2023-04-01T03:13:59.593Z,11.47
2023-04-01T03:16:31.215Z,11.46
2023-04-01T03:19:03.264Z,11.12
2023-04-01T03:21:34.833Z,11.24
2023-04-01T03:24:07.221Z,11.48
2023-04-01T03:26:38.722Z,11.02
2023-04-01T03:29:10.336Z,11.09
2023-04-01T03:31:41.856Z,11.53
2023-04-01T03:34:13.361Z,11.42
2023-04-01T03:36:44.917Z,10.99
2023-04-01T03:39:19.581Z,11.30
2023-04-01T03:41:51.185Z,11.00
2023-04-01T03:44:22.738Z,11.36
2023-04-01T03:46:54.270Z,11.41
2023-04-01T03:49:25.796Z,11.74
2023-04-01T03:51:57.268Z,11.64
2023-04-01T03:54:28.798Z,11.92
2023-04-01T03:57:00.381Z,11.37
2023-04-01T03:59:32.089Z,11.57
2023-04-01T04:02:04.294Z,11.60
2023-04-01T04:04:36.499Z,11.54
2023-04-01T04:07:08.375Z,11.48
2023-04-01T04:09:40.042Z,11.59
2023-04-01T04:12:11.654Z,11.57
2023-04-01T04:14:43.222Z,11.04
2023-04-01T04:17:19.402Z,11.34
2023-04-01T04:19:50.934Z,11.52
2023-04-01T04:22:22.521Z,11.72
2023-04-01T04:24:54.117Z,11.97
2023-04-01T04:27:25.869Z,12.10
2023-04-01T04:29:57.424Z,11.61
2023-04-01T04:32:31.912Z,11.85
2023-04-01T04:35:03.721Z,11.84
2023-04-01T04:37:35.505Z,12.02
2023-04-01T04:40:09.241Z,11.99
2023-04-01T04:42:40.953Z,11.98
2023-04-01T04:45:13.682Z,12.08
2023-04-01T04:47:45.303Z,11.99
2023-04-01T04:50:18.163Z,11.83
2023-04-01T04:52:49.652Z,11.66
2023-04-01T04:55:22.168Z,12.16
2023-04-01T04:57:53.735Z,11.51
2023-04-01T05:00:25.356Z,11.77
2023-04-01T05:02:56.964Z,11.27
2023-04-01T05:05:28.635Z,11.23
2023-04-01T05:08:00.259Z,11.33
2023-04-01T05:10:32.440Z,11.33
2023-04-01T05:13:03.913Z,11.44
2023-04-01T05:15:36.939Z,11.59
2023-04-01T05:18:08.650Z,11.53
2023-04-01T05:20:40.191Z,12.12
2023-04-01T05:23:12.383Z,11.50
2023-04-01T05:25:44.428Z,11.70
2023-04-01T05:28:16.430Z,12.08
2023-04-01T05:30:51.477Z,11.78
2023-04-01T05:33:23.198Z,11.82
2023-04-01T05:35:55.861Z,12.15
2023-04-01T05:38:27.460Z,12.01
2023-04-01T05:41:04.071Z,12.41
2023-04-01T05:43:40.057Z,12.45
2023-04-01T05:46:18.706Z,12.23
2023-04-01T05:48:50.282Z,11.40
2023-04-01T05:51:22.404Z,12.13
2023-04-01T05:53:56.091Z,11.85
2023-04-01T05:56:29.942Z,11.92
2023-04-01T05:59:01.523Z,12.14
2023-04-01T06:01:33.152Z,12.34
2023-04-01T06:04:04.843Z,11.86
2023-04-01T06:06:37.196Z,12.44
2023-04-01T06:09:31.355Z,12.42
2023-04-01T06:12:09.011Z,11.96
2023-04-01T06:14:59.160Z,11.37
2023-04-01T06:18:22.392Z,11.71
2023-04-01T06:21:14.591Z,11.82
2023-04-01T06:24:01.390Z,11.83
2023-04-01T06:26:50.094Z,11.21
2023-04-01T06:29:33.654Z,11.59
2023-04-01T06:32:42.903Z,11.39
2023-04-01T06:35:40.602Z,11.54
2023-04-01T06:39:02.780Z,11.29
2023-04-01T06:42:00.394Z,12.07
2023-04-01T06:44:52.593Z,12.83
2023-04-01T06:48:10.173Z,12.42
2023-04-01T06:51:05.589Z,12.36
2023-04-01T06:54:13.126Z,12.74
2023-04-01T06:56:49.434Z,12.66
2023-04-01T06:59:29.245Z,12.50
2023-04-01T07:02:45.827Z,12.81
2023-04-01T07:05:17.436Z,12.61
2023-04-01T07:07:54.679Z,13.05
2023-04-01T07:10:54.520Z,13.35
2023-04-01T07:13:33.190Z,14.08
2023-04-01T07:16:35.603Z,13.56
2023-04-01T07:19:21.879Z,14.39
2023-04-01T07:21:59.386Z,13.59
2023-04-01T07:24:46.309Z,15.14
2023-04-01T07:27:17.827Z,14.51
2023-04-01T07:29:49.375Z,14.56
2023-04-01T07:32:40.228Z,14.00
2023-04-01T07:35:27.793Z,15.45
2023-04-01T07:38:18.789Z,14.17
2023-04-01T07:41:04.494Z,14.48
2023-04-01T07:43:44.178Z,14.27
2023-04-01T07:47:05.926Z,14.00
2023-04-01T07:50:10.599Z,14.35
2023-04-01T07:53:29.000Z,14.13
2023-04-01T07:56:28.454Z,13.48
2023-04-01T07:59:12.576Z,14.31
2023-04-01T08:01:57.529Z,14.18
2023-04-01T08:05:02.772Z,13.56
2023-04-01T08:08:11.747Z,13.56
2023-04-01T08:11:28.297Z,13.82
2023-04-01T08:14:37.926Z,13.71
2023-04-01T08:17:54.751Z,14.34
2023-04-01T08:20:47.265Z,14.79
2023-04-01T08:23:45.800Z,14.34
2023-04-01T08:26:27.142Z,14.94
2023-04-01T08:29:03.874Z,14.32
2023-04-01T08:32:07.847Z,13.60
2023-04-01T08:34:45.005Z,13.66
2023-04-01T08:37:26.123Z,13.75
2023-04-01T08:40:40.835Z,13.36
2023-04-01T08:43:44.719Z,13.43
2023-04-01T08:46:57.802Z,13.27
2023-04-01T08:50:02.767Z,13.29
2023-04-01T08:53:00.855Z,13.25
2023-04-01T08:55:52.462Z,13.45
2023-04-01T08:59:18.986Z,13.49
2023-04-01T09:02:08.643Z,13.28
2023-04-01T09:05:23.694Z,13.25
2023-04-01T09:08:26.590Z,13.55
2023-04-01T09:11:29.597Z,13.18
2023-04-01T09:14:25.570Z,12.66
2023-04-01T09:17:41.256Z,13.12
2023-04-01T09:20:47.404Z,13.29
2023-04-01T09:23:41.482Z,12.52
2023-04-01T09:26:59.757Z,13.24
2023-04-01T09:29:49.814Z,13.21
2023-04-01T09:32:49.383Z,13.08
2023-04-01T09:35:48.466Z,12.73
2023-04-01T09:38:42.106Z,11.94
2023-04-01T09:41:40.633Z,12.48
2023-04-01T09:44:51.839Z,12.59
2023-04-01T09:48:03.460Z,12.81
2023-04-01T09:51:06.239Z,12.59
2023-04-01T09:53:55.899Z,12.23
2023-04-01T09:57:32.003Z,12.77
2023-04-01T10:01:14.548Z,13.07
2023-04-01T10:04:31.143Z,13.15
2023-04-01T10:08:11.861Z,12.12
2023-04-01T10:11:45.612Z,13.21
2023-04-01T10:14:24.764Z,13.17
2023-04-01T10:17:27.305Z,13.56
2023-04-01T10:20:35.625Z,13.93
2023-04-01T10:23:21.872Z,13.23
2023-04-01T10:26:31.606Z,12.79
2023-04-01T10:29:29.532Z,13.84
2023-04-01T10:32:42.919Z,13.74
2023-04-01T10:35:35.718Z,13.30
2023-04-01T10:38:38.167Z,13.80
2023-04-01T10:41:56.822Z,13.97
2023-04-01T10:45:19.381Z,14.46
2023-04-01T10:48:18.432Z,14.17
2023-04-01T10:51:15.941Z,13.65
2023-04-01T10:54:11.191Z,13.57
2023-04-01T10:56:52.842Z,13.56
2023-04-01T11:00:00.278Z,13.91
2023-04-01T11:02:46.748Z,13.68
2023-04-01T11:05:27.356Z,13.92
2023-04-01T11:08:51.573Z,14.41
2023-04-01T11:12:24.342Z,13.59
2023-04-01T11:15:21.129Z,13.30
2023-04-01T11:18:32.474Z,13.10
2023-04-01T11:21:54.458Z,13.36
2023-04-01T11:25:12.249Z,14.40
2023-04-01T11:28:25.034Z,13.75
2023-04-01T11:31:47.542Z,13.64
2023-04-01T11:34:47.847Z,13.99
2023-04-01T11:37:58.931Z,14.41
2023-04-01T11:40:41.570Z,14.06
2023-04-01T11:43:33.766Z,14.59
2023-04-01T11:46:16.225Z,14.22
2023-04-01T11:49:20.255Z,14.75
2023-04-01T11:52:39.324Z,14.08
2023-04-01T11:55:43.563Z,14.52
2023-04-01T11:58:42.938Z,13.74
2023-04-01T12:01:30.919Z,13.67
2023-04-01T12:04:57.884Z,13.94
2023-04-01T12:07:48.151Z,13.75
2023-04-01T12:10:27.335Z,14.02
2023-04-01T12:13:11.852Z,13.85
2023-04-01T12:16:10.989Z,14.73
2023-04-01T12:18:51.379Z,14.77
2023-04-01T12:21:53.755Z,13.96
2023-04-01T12:24:49.235Z,14.38
2023-04-01T12:28:05.706Z,13.27
2023-04-01T12:31:02.481Z,14.29
2023-04-01T12:34:14.276Z,13.98
2023-04-01T12:37:15.675Z,14.33
2023-04-01T12:40:07.240Z,13.93
2023-04-01T12:43:03.558Z,13.73
2023-04-01T12:45:48.289Z,13.85
2023-04-01T12:48:57.417Z,13.69
2023-04-01T12:51:59.343Z,13.11
2023-04-01T12:55:28.095Z,13.06
2023-04-01T12:58:47.192Z,13.23
2023-04-01T13:01:32.535Z,13.53
2023-04-01T13:04:36.761Z,13.50
2023-04-01T13:07:38.845Z,13.94
2023-04-01T13:10:36.720Z,14.23
2023-04-01T13:14:30.869Z,14.59
2023-04-01T13:17:12.265Z,14.34
2023-04-01T13:20:04.977Z,14.29
2023-04-01T13:22:51.096Z,13.96
2023-04-01T13:26:13.808Z,14.58
2023-04-01T13:29:29.018Z,14.23
2023-04-01T13:32:18.918Z,14.13
2023-04-01T13:35:23.071Z,14.21
2023-04-01T13:38:50.778Z,14.04
2023-04-01T13:41:52.135Z,14.27
2023-04-01T13:44:47.861Z,14.04
2023-04-01T13:47:57.082Z,13.70
2023-04-01T13:51:08.259Z,13.06
2023-04-01T13:54:04.776Z,13.67
2023-04-01T13:57:17.949Z,14.06
2023-04-01T14:00:19.535Z,13.43
2023-04-01T14:03:20.843Z,13.92
2023-04-01T14:06:16.108Z,14.58
2023-04-01T14:09:46.336Z,14.42
2023-04-01T14:12:39.867Z,14.77
2023-04-01T14:15:49.600Z,14.64
2023-04-01T14:18:58.062Z,14.63
2023-04-01T14:21:59.652Z,15.16
2023-04-01T14:25:00.617Z,14.66
2023-04-01T14:27:50.696Z,14.66
2023-04-01T14:30:43.974Z,14.64
2023-04-01T14:33:21.610Z,15.12
2023-04-01T14:36:26.257Z,15.18
2023-04-01T14:39:49.108Z,15.15
2023-04-01T14:42:46.329Z,15.57
2023-04-01T14:45:46.575Z,15.70
2023-04-01T14:48:49.309Z,16.01
2023-04-01T14:51:31.925Z,15.53
2023-04-01T14:54:12.650Z,15.17
2023-04-01T14:56:49.383Z,15.45
2023-04-01T14:59:23.968Z,15.58
2023-04-01T15:02:32.350Z,15.45
2023-04-01T15:05:28.438Z,15.17
2023-04-01T15:08:20.167Z,14.74
2023-04-01T15:11:02.082Z,13.64
2023-04-01T15:13:50.419Z,12.84
2023-04-01T15:16:40.655Z,13.61
2023-04-01T15:19:51.325Z,13.51
2023-04-01T15:22:31.983Z,14.04
2023-04-01T15:25:40.012Z,14.16
2023-04-01T15:28:54.175Z,14.53
2023-04-01T15:31:37.905Z,14.21
2023-04-01T15:34:27.345Z,13.89
2023-04-01T15:37:44.126Z,13.67
2023-04-01T15:40:41.378Z,13.40
2023-04-01T15:43:25.031Z,12.56
2023-04-01T15:46:09.393Z,12.22
2023-04-01T15:49:16.827Z,12.62
2023-04-01T15:52:14.638Z,12.77
2023-04-01T15:55:37.490Z,12.82
2023-04-01T15:58:40.916Z,12.95
2023-04-01T16:01:52.535Z,13.68
2023-04-01T16:04:59.351Z,12.44
2023-04-01T16:07:58.146Z,12.95
2023-04-01T16:10:44.853Z,13.05
2023-04-01T16:13:49.869Z,13.60
2023-04-01T16:17:05.918Z,13.21
2023-04-01T16:20:08.813Z,13.76
2023-04-01T16:23:27.366Z,13.78
2023-04-01T16:26:27.597Z,13.99
2023-04-01T16:29:42.377Z,14.11
2023-04-01T16:32:42.758Z,13.96
2023-04-01T16:35:47.329Z,14.03
2023-04-01T16:38:31.239Z,14.22
2023-04-01T16:41:21.561Z,14.21
2023-04-01T16:44:00.643Z,14.15
2023-04-01T16:46:46.374Z,12.74
2023-04-01T16:49:38.689Z,13.91
2023-04-01T16:52:10.849Z,13.78
2023-04-01T16:55:02.714Z,13.86
2023-04-01T16:58:00.978Z,13.83
2023-04-01T17:00:48.961Z,13.97
2023-04-01T17:03:32.952Z,14.00
2023-04-01T17:06:33.683Z,14.23
2023-04-01T17:09:42.754Z,13.84
2023-04-01T17:12:36.490Z,13.73
2023-04-01T17:15:45.350Z,13.91
2023-04-01T17:19:15.954Z,12.88
2023-04-01T17:22:17.485Z,13.41
2023-04-01T17:25:11.286Z,13.58
2023-04-01T17:28:37.206Z,13.02
2023-04-01T17:31:19.606Z,14.97
2023-04-01T17:34:25.254Z,14.85
2023-04-01T17:37:21.053Z,14.89
2023-04-01T17:40:30.599Z,15.11
2023-04-01T17:43:28.358Z,15.28
2023-04-01T17:46:33.509Z,15.40
2023-04-01T17:49:25.907Z,15.95
2023-04-01T17:52:41.373Z,15.27
2023-04-01T17:55:46.493Z,14.76
2023-04-01T17:58:21.960Z,14.60
2023-04-01T18:01:24.373Z,14.13
2023-04-01T18:04:45.201Z,14.83
2023-04-01T18:07:30.744Z,15.13
2023-04-01T18:10:14.958Z,14.32
2023-04-01T18:13:01.842Z,14.81
2023-04-01T18:16:18.971Z,14.72
2023-04-01T18:19:22.923Z,14.25
2023-04-01T18:22:10.665Z,14.75
2023-04-01T18:24:56.380Z,14.83
2023-04-01T18:27:39.533Z,15.12
2023-04-01T18:30:29.385Z,15.11
2023-04-01T18:33:31.878Z,14.85
2023-04-01T18:36:47.933Z,13.10
2023-04-01T18:39:48.016Z,13.25
2023-04-01T18:43:02.623Z,13.29
2023-04-01T18:45:42.448Z,13.20
2023-04-01T18:48:47.299Z,13.11
2023-04-01T18:51:40.869Z,13.43
2023-04-01T18:54:31.270Z,13.09
2023-04-01T18:57:14.510Z,13.29
2023-04-01T19:00:14.719Z,14.49
2023-04-01T19:03:11.587Z,13.65
2023-04-01T19:05:48.592Z,13.52
2023-04-01T19:08:35.280Z,13.62
2023-04-01T19:11:39.850Z,13.82
2023-04-01T19:15:06.443Z,13.65
2023-04-01T19:18:27.218Z,13.35
2023-04-01T19:21:39.517Z,13.15
2023-04-01T19:25:05.154Z,13.19
2023-04-01T19:27:46.905Z,12.76
2023-04-01T19:30:47.629Z,12.62
2023-04-01T19:33:28.348Z,12.70
2023-04-01T19:36:44.808Z,12.51
2023-04-01T19:39:49.803Z,12.12
2023-04-01T19:43:03.688Z,12.70
2023-04-01T19:45:53.416Z,12.52
2023-04-01T19:49:11.731Z,12.40
2023-04-01T19:52:01.825Z,12.61
2023-04-01T19:55:08.759Z,12.35
2023-04-01T19:58:16.040Z,12.53
2023-04-01T20:00:55.882Z,12.13
2023-04-01T20:04:01.730Z,12.16
2023-04-01T20:06:37.359Z,12.27
2023-04-01T20:09:47.010Z,12.34
2023-04-01T20:12:43.614Z,12.07
2023-04-01T20:15:46.690Z,11.95
2023-04-01T20:18:35.068Z,12.20
2023-04-01T20:21:31.397Z,12.11
2023-04-01T20:24:15.471Z,12.52
2023-04-01T20:27:16.578Z,12.52
2023-04-01T20:30:29.130Z,12.73
2023-04-01T20:33:54.961Z,12.76
2023-04-01T20:36:56.495Z,12.11
2023-04-01T20:39:44.740Z,12.09
2023-04-01T20:42:41.168Z,11.71
2023-04-01T20:46:13.255Z,12.20
2023-04-01T20:49:17.175Z,12.48
2023-04-01T20:52:08.416Z,12.87
2023-04-01T20:55:18.363Z,12.84
2023-04-01T20:58:18.837Z,12.35
2023-04-01T21:01:30.954Z,12.29
2023-04-01T21:04:38.519Z,13.12
2023-04-01T21:07:43.584Z,12.79
2023-04-01T21:10:41.051Z,12.62
2023-04-01T21:13:47.472Z,13.21
2023-04-01T21:16:38.644Z,13.15
2023-04-01T21:19:31.456Z,13.23
2023-04-01T21:22:36.606Z,13.20
2023-04-01T21:25:48.984Z,13.41
2023-04-01T21:28:52.461Z,13.30
2023-04-01T21:32:00.793Z,13.27
2023-04-01T21:34:58.258Z,13.16
2023-04-01T21:37:41.980Z,13.25
2023-04-01T21:40:38.372Z,13.32
2023-04-01T21:43:33.991Z,13.19
2023-04-01T21:46:26.251Z,13.04
2023-04-01T21:49:39.693Z,12.78
2023-04-01T21:53:00.012Z,12.79
2023-04-01T21:56:10.137Z,12.48
2023-04-01T21:59:02.608Z,12.63
2023-04-01T22:02:12.386Z,12.87
2023-04-01T22:05:15.136Z,13.00
2023-04-01T22:08:21.059Z,12.65
2023-04-01T22:11:33.552Z,12.80
2023-04-01T22:14:38.604Z,12.84
2023-04-01T22:17:26.670Z,12.96
2023-04-01T22:20:25.300Z,13.17
2023-04-01T22:23:32.120Z,13.43
2023-04-01T22:26:45.856Z,13.60
2023-04-01T22:29:35.495Z,13.55
2023-04-01T22:32:18.006Z,13.52
2023-04-01T22:35:28.967Z,12.97
2023-04-01T22:38:40.581Z,13.15
2023-04-01T22:41:41.949Z,12.76
2023-04-01T22:44:35.488Z,12.90
2023-04-01T22:47:27.345Z,12.77
2023-04-01T22:50:11.913Z,12.66
2023-04-01T22:52:49.313Z,12.62
2023-04-01T22:55:33.203Z,12.65
2023-04-01T22:58:18.203Z,12.60
2023-04-01T23:01:01.141Z,12.65
2023-04-01T23:03:37.299Z,12.72
2023-04-01T23:06:22.973Z,12.74
2023-04-01T23:09:19.780Z,12.81
2023-04-01T23:11:56.492Z,12.78
2023-04-01T23:14:47.204Z,12.71
2023-04-01T23:17:39.484Z,12.71
2023-04-01T23:20:32.778Z,12.74
2023-04-01T23:23:21.419Z,12.71
2023-04-01T23:26:26.473Z,12.67
2023-04-01T23:29:00.492Z,12.50
2023-04-01T23:32:04.508Z,12.50
2023-04-01T23:34:37.156Z,12.47
2023-04-01T23:37:17.040Z,12.39
2023-04-01T23:39:58.437Z,12.04
2023-04-01T23:42:40.290Z,11.81
2023-04-01T23:45:20.791Z,11.61
2023-04-01T23:47:53.278Z,11.40
2023-04-01T23:50:26.484Z,11.50
2023-04-01T23:53:11.984Z,11.27
2023-04-01T23:55:43.813Z,11.24
2023-04-01T23:58:26.953Z,11.35
